Time;durP1;ratioP1;P1;durP2;ratioP2;P2;SDS_P1;SDS_P2;PMS_P1;PMS_P2;Temp;Humidity;BMP_temperature;BMP_pressure;BME280_temperature;BME280_humidity;BME280_pressure;Samples;Min_cycle;Max_cycle;Signal;HPM_P1;HPM_P2
2022/07/15 00:02:25;;;;;;;3.78;3.17;;;;;;;25.56;41.80;95824.72;5010395;28;20225;-85
2022/07/15 00:04:51;;;;;;;4.18;2.90;;;;;;;25.51;41.76;95822.84;5016748;28;20257;-85
2022/07/15 00:07:20;;;;;;;3.15;2.72;;;;;;;25.50;41.88;95817.84;5020663;28;20218;-85
2022/07/15 00:12:31;;;;;;;3.60;2.78;;;;;;;25.25;42.41;95816.78;5030515;28;20618;-85
2022/07/15 00:14:58;;;;;;;5.35;2.80;;;;;;;25.23;42.58;95832.06;5025058;28;20277;-85
2022/07/15 00:17:25;;;;;;;3.63;3.05;;;;;;;25.36;42.23;95826.28;5011678;28;20198;-85
2022/07/15 00:19:54;;;;;;;4.03;3.15;;;;;;;25.30;42.53;95822.06;5023759;28;20194;-85
2022/07/15 00:22:21;;;;;;;2.80;2.60;;;;;;;25.29;42.91;95828.38;5030009;28;20202;-85
2022/07/15 00:24:47;;;;;;;4.18;2.80;;;;;;;25.41;42.43;95822.84;5026305;28;20229;-85
2022/07/15 00:27:14;;;;;;;3.10;2.80;;;;;;;25.37;42.67;95804.16;5014037;28;20265;-85
2022/07/15 00:29:42;;;;;;;3.28;2.97;;;;;;;25.26;43.35;95815.72;5025935;28;20225;-85
2022/07/15 00:32:09;;;;;;;4.07;2.85;;;;;;;25.29;42.92;95824.97;5017364;28;20210;-85
2022/07/15 00:34:35;;;;;;;5.32;2.90;;;;;;;25.31;42.96;95822.84;5024946;28;20214;-85
2022/07/15 00:37:02;;;;;;;4.70;2.78;;;;;;;25.29;43.12;95817.84;5034539;28;20620;-85
2022/07/15 00:39:28;;;;;;;4.85;2.95;;;;;;;25.27;43.50;95816.53;5019014;28;20237;-85
2022/07/15 00:41:54;;;;;;;4.05;3.00;;;;;;;25.26;44.42;95799.91;5014139;28;20207;-85
2022/07/15 00:44:21;;;;;;;4.40;3.40;;;;;;;25.13;45.28;95797.81;5030528;28;20628;-86
2022/07/15 00:46:49;;;;;;;4.22;3.17;;;;;;;25.07;45.34;95806.75;5034534;28;20643;-85
2022/07/15 00:49:15;;;;;;;4.28;3.22;;;;;;;24.98;45.07;95817.03;5017128;28;20199;-85
2022/07/15 00:51:43;;;;;;;3.80;3.17;;;;;;;24.94;45.32;95830.97;5014474;28;20207;-85
2022/07/15 00:54:12;;;;;;;4.32;2.90;;;;;;;25.00;45.00;95854.47;5015265;28;20230;-84
2022/07/15 00:56:42;;;;;;;5.82;3.78;;;;;;;24.73;49.66;95844.06;5034171;28;20194;-84
2022/07/15 00:59:11;;;;;;;5.57;3.85;;;;;;;24.60;51.60;95823.50;5020771;28;20203;-85
2022/07/15 01:01:38;;;;;;;7.55;3.95;;;;;;;24.40;52.93;95829.50;5014804;28;20690;-85
2022/07/15 01:04:06;;;;;;;4.18;3.38;;;;;;;24.24;53.44;95832.31;5029046;28;20744;-85
2022/07/15 01:06:33;;;;;;;6.13;3.67;;;;;;;23.97;54.79;95817.41;5034012;28;20233;-85
2022/07/15 01:09:00;;;;;;;5.57;3.58;;;;;;;23.85;54.57;95819.44;5015229;28;20574;-85
2022/07/15 01:11:30;;;;;;;4.15;3.75;;;;;;;23.80;53.93;95822.03;5016473;28;20206;-85
2022/07/15 01:13:56;;;;;;;4.30;3.60;;;;;;;23.76;53.99;95813.88;5008708;28;20309;-85
2022/07/15 01:16:23;;;;;;;4.03;3.20;;;;;;;23.72;53.87;95809.34;5015985;28;20203;-85
2022/07/15 01:18:49;;;;;;;4.70;3.90;;;;;;;23.72;54.24;95820.66;5031939;28;20206;-84
2022/07/15 01:21:17;;;;;;;5.18;3.55;;;;;;;23.59;55.44;95822.94;5014710;28;20222;-85
2022/07/15 01:23:43;;;;;;;4.65;3.40;;;;;;;23.54;55.53;95836.03;5032941;28;20235;-85
2022/07/15 01:26:11;;;;;;;4.97;3.45;;;;;;;23.55;55.49;95846.31;5026739;28;20261;-85
2022/07/15 01:28:38;;;;;;;4.57;3.53;;;;;;;23.58;55.07;95843.19;5032881;28;20206;-85
2022/07/15 01:31:05;;;;;;;3.60;3.30;;;;;;;23.47;56.46;95846.75;5030948;28;20199;-85
2022/07/15 01:33:31;;;;;;;4.40;3.42;;;;;;;23.35;56.75;95835.59;5015099;28;20230;-85
2022/07/15 01:35:58;;;;;;;5.07;3.70;;;;;;;23.33;56.40;95835.06;5017658;28;20211;-85
2022/07/15 01:38:27;;;;;;;5.05;3.67;;;;;;;23.23;58.79;95829.72;5035501;28;20226;-85
2022/07/15 01:40:53;;;;;;;4.13;3.60;;;;;;;23.22;59.33;95823.69;5021003;28;20203;-85
2022/07/15 01:43:20;;;;;;;6.05;3.83;;;;;;;23.16;58.90;95832.56;5020821;28;20226;-85
2022/07/15 01:45:47;;;;;;;4.90;3.28;;;;;;;23.15;57.58;95830.19;5035343;28;20205;-85
2022/07/15 01:50:54;;;;;;;5.38;3.72;;;;;;;23.17;56.26;95835.97;5014423;28;20202;-85
2022/07/15 01:53:20;;;;;;;5.22;3.58;;;;;;;23.14;56.76;95842.50;5021285;28;20252;-84
2022/07/15 01:55:48;;;;;;;6.07;3.65;;;;;;;23.15;57.61;95841.47;5035421;28;20554;-85
2022/07/15 01:58:14;;;;;;;6.40;3.92;;;;;;;23.14;57.37;95846.97;5029046;28;20194;-85
2022/07/15 02:00:41;;;;;;;4.07;3.58;;;;;;;23.05;59.42;95833.50;5015008;28;20195;-84
2022/07/15 02:03:08;;;;;;;6.38;3.88;;;;;;;23.08;60.13;95830.41;5018470;28;20226;-85
2022/07/15 02:05:34;;;;;;;4.20;3.80;;;;;;;23.12;58.14;95825.41;5028065;28;20214;-85
2022/07/15 02:08:01;;;;;;;3.60;3.20;;;;;;;23.03;58.10;95825.09;5022041;28;20213;-85
2022/07/15 02:10:39;;;;;;;3.70;3.40;;;;;;;23.10;55.56;95836.16;5034659;28;20213;-85
2022/07/15 02:13:07;;;;;;;3.10;2.80;;;;;;;23.04;56.08;95839.81;5026443;28;20276;-85
2022/07/15 02:15:33;;;;;;;3.53;3.22;;;;;;;23.04;56.42;95842.44;5013360;28;20222;-85
2022/07/15 02:18:00;;;;;;;6.72;3.42;;;;;;;23.01;56.01;95848.97;5021357;28;20253;-84
2022/07/15 02:20:27;;;;;;;3.63;3.00;;;;;;;23.10;55.57;95841.41;5033530;28;20827;-85
2022/07/15 02:22:57;;;;;;;4.00;3.30;;;;;;;23.09;57.01;95835.38;5024806;28;20230;-85
2022/07/15 02:25:26;;;;;;;4.35;3.42;;;;;;;23.17;56.56;95834.13;5013819;28;20223;-85
2022/07/15 02:27:53;;;;;;;5.50;3.83;;;;;;;23.11;56.48;95839.59;5021650;28;20723;-85
2022/07/15 02:30:21;;;;;;;3.70;3.40;;;;;;;23.05;56.23;95842.19;5033060;28;20213;-84
2022/07/15 02:32:47;;;;;;;4.13;3.72;;;;;;;23.07;55.93;95829.59;5025691;28;20238;-85
2022/07/15 02:35:14;;;;;;;3.72;3.25;;;;;;;22.91;56.37;95833.09;5013256;28;20223;-85
2022/07/15 02:37:41;;;;;;;5.63;3.70;;;;;;;22.82;56.13;95839.06;5019705;28;20725;-85
2022/07/15 02:40:09;;;;;;;6.40;3.53;;;;;;;22.73;56.50;95836.03;5032773;28;20202;-84
2022/07/15 02:42:36;;;;;;;4.97;3.45;;;;;;;22.62;55.77;95837.75;5012187;28;20600;-85
2022/07/15 02:45:02;;;;;;;6.82;3.58;;;;;;;22.59;55.20;95846.13;5013380;28;20234;-85
2022/07/15 02:47:30;;;;;;;4.88;3.50;;;;;;;22.56;55.55;95851.06;5025676;28;20225;-85
2022/07/15 02:49:58;;;;;;;3.63;3.28;;;;;;;22.57;56.24;95857.91;5013078;28;20199;-85
2022/07/15 02:52:24;;;;;;;4.90;3.38;;;;;;;22.59;54.96;95853.22;5012184;28;20210;-85
2022/07/15 02:54:50;;;;;;;4.05;3.20;;;;;;;22.48;55.39;95851.50;5022850;28;20233;-85
2022/07/15 02:57:17;;;;;;;5.22;3.70;;;;;;;22.31;56.14;95852.38;5026496;28;20930;-86
2022/07/15 02:59:43;;;;;;;4.22;3.40;;;;;;;22.38;56.05;95866.09;5013092;28;20206;-84
2022/07/15 03:02:09;;;;;;;4.25;2.90;;;;;;;22.32;54.73;95861.78;5014821;28;20654;-85
2022/07/15 03:04:37;;;;;;;5.32;2.60;;;;;;;22.21;52.01;95862.72;5032856;28;20218;-85
2022/07/15 03:07:04;;;;;;;6.78;2.40;;;;;;;22.05;52.35;95848.59;5029311;28;20218;-85
2022/07/15 03:09:30;;;;;;;2.78;2.40;;;;;;;22.08;51.73;95865.69;5013259;28;20209;-85
2022/07/15 03:11:57;;;;;;;4.53;2.40;;;;;;;22.01;52.08;95865.06;5013313;28;20206;-85
2022/07/15 03:14:23;;;;;;;10.10;2.70;;;;;;;21.91;52.76;95864.91;5031855;28;20233;-85
2022/07/15 03:16:49;;;;;;;4.03;2.40;;;;;;;21.81;52.64;95870.78;5022714;28;20199;-85
2022/07/15 03:19:16;;;;;;;4.47;2.70;;;;;;;21.96;52.62;95872.81;5023163;28;20225;-85
2022/07/15 03:21:44;;;;;;;2.60;2.40;;;;;;;21.79;51.31;95875.47;5038105;28;20201;-85
2022/07/15 03:24:12;;;;;;;2.75;2.45;;;;;;;21.80;51.44;95876.25;5034689;28;20238;-85
2022/07/15 03:26:39;;;;;;;4.13;2.80;;;;;;;21.78;51.66;95880.94;5018913;28;20637;-85
2022/07/15 03:29:05;;;;;;;3.58;2.40;;;;;;;21.67;50.95;95877.38;5038523;28;20564;-85
2022/07/15 03:31:32;;;;;;;4.70;2.20;;;;;;;21.64;50.08;95880.47;5033235;28;20702;-85
2022/07/15 03:33:58;;;;;;;3.05;2.33;;;;;;;21.60;50.72;95881.97;5018220;28;20280;-85
2022/07/15 03:36:25;;;;;;;2.13;1.95;;;;;;;21.62;50.51;95883.34;5022324;28;20195;-85
2022/07/15 03:38:53;;;;;;;3.13;2.20;;;;;;;21.84;49.58;95885.25;5018218;28;20198;-85
2022/07/15 03:41:20;;;;;;;3.20;2.10;;;;;;;21.84;50.10;95888.66;5018170;28;20199;-85
2022/07/15 03:43:47;;;;;;;3.05;1.90;;;;;;;21.77;49.41;95892.47;5018030;28;20246;-85
2022/07/15 03:46:15;;;;;;;4.60;2.55;;;;;;;21.74;49.85;95887.72;5033621;28;20209;-85
2022/07/15 03:48:41;;;;;;;5.03;2.83;;;;;;;21.89;55.66;95883.50;5040356;28;20626;-85
2022/07/15 03:51:08;;;;;;;4.88;2.50;;;;;;;22.18;50.43;95886.81;5027088;28;20203;-84
2022/07/15 04:27:48;;;;;;;4.47;2.35;;;;;;;23.23;46.07;95900.69;4880987;29;20276;-88
2022/07/15 04:30:55;;;;;;;4.78;2.20;;;;;;;23.14;45.62;95894.25;4913200;29;20614;-88
2022/07/15 04:57:41;;;;;;;4.97;2.03;;;;;;;23.02;46.95;95882.09;4921795;28;20215;-92
2022/07/15 05:00:09;;;;;;;5.35;2.15;;;;;;;22.84;45.76;95887.66;4945455;28;20219;-87
2022/07/15 05:02:36;;;;;;;2.58;2.00;;;;;;;22.71;46.32;95890.63;5009292;28;20229;-87
2022/07/15 05:05:06;;;;;;;5.80;2.55;;;;;;;22.58;46.28;95891.00;5012692;28;20714;-87
2022/07/15 05:07:33;;;;;;;4.38;2.03;;;;;;;22.57;46.28;95887.56;4996347;28;20306;-87
2022/07/15 05:10:01;;;;;;;8.10;2.30;;;;;;;22.49;45.77;95892.47;4996185;28;20214;-87
2022/07/15 05:12:28;;;;;;;3.45;2.20;;;;;;;22.61;45.72;95895.75;4995354;28;21725;-87
2022/07/15 05:14:57;;;;;;;7.68;2.58;;;;;;;22.49;46.24;95895.09;4998224;28;20226;-87
2022/07/15 05:17:25;;;;;;;4.47;2.42;;;;;;;22.53;46.61;95896.97;5013590;28;20234;-87
2022/07/15 05:23:18;;;;;;;5.78;2.22;;;;;;;22.56;46.71;95906.97;4971162;28;20235;-86
2022/07/15 05:25:45;;;;;;;5.25;2.20;;;;;;;22.43;46.69;95906.56;5019646;28;20677;-86
2022/07/15 05:28:11;;;;;;;2.72;2.40;;;;;;;22.45;46.69;95907.09;5023422;28;20215;-87
2022/07/15 05:30:39;;;;;;;4.70;2.45;;;;;;;22.42;46.67;95908.38;5021737;28;20253;-87
2022/07/15 05:33:05;;;;;;;6.78;2.75;;;;;;;22.33;47.33;95907.19;5023343;28;20234;-86
2022/07/15 05:35:32;;;;;;;4.47;2.65;;;;;;;22.37;46.21;95910.94;5024118;28;20214;-86
2022/07/15 05:37:58;;;;;;;3.88;2.33;;;;;;;22.31;46.37;95904.84;5023239;28;20291;-86
2022/07/15 05:40:25;;;;;;;8.00;2.40;;;;;;;22.47;46.33;95918.16;5023681;28;20261;-87
2022/07/15 05:42:51;;;;;;;11.05;5.35;;;;;;;22.58;46.44;95919.88;5021892;28;20326;-86
2022/07/15 05:45:26;;;;;;;16.17;14.45;;;;;;;22.60;46.15;95926.47;5020323;28;20269;-87
2022/07/15 05:47:54;;;;;;;9.20;5.43;;;;;;;22.54;46.25;95932.66;5021312;28;20245;-87
2022/07/15 05:50:23;;;;;;;12.38;8.68;;;;;;;22.59;46.26;95932.75;5009123;28;20204;-87
2022/07/15 05:52:49;;;;;;;5.93;4.43;;;;;;;22.62;45.85;95932.25;5014689;28;20281;-87
2022/07/15 05:55:18;;;;;;;5.25;4.07;;;;;;;22.70;46.27;95938.94;5013646;28;20242;-86
2022/07/15 05:58:37;;;;;;;;;;;;;;;;;;;;;
2022/07/15 06:01:05;;;;;;;3.83;2.50;;;;;;;22.51;46.19;95940.25;5002456;28;20218;-87
2022/07/15 06:09:28;;;;;;;3.67;2.25;;;;;;;22.30;43.88;95945.22;4996125;28;20247;-86
2022/07/15 06:12:11;;;;;;;5.80;2.60;;;;;;;22.34;44.86;95948.16;4998707;28;20278;-87
2022/07/15 06:14:38;;;;;;;6.15;2.47;;;;;;;22.42;43.80;95944.31;4997078;28;20714;-87
2022/07/15 06:17:04;;;;;;;4.88;2.17;;;;;;;22.53;44.15;95941.56;4997623;28;20200;-86
2022/07/15 06:19:38;;;;;;;3.92;2.10;;;;;;;22.77;43.33;95947.44;4997423;28;20207;-87
2022/07/15 06:22:07;;;;;;;5.35;1.75;;;;;;;22.82;42.68;95942.25;4997762;28;20213;-87
2022/07/15 06:24:34;;;;;;;3.33;1.90;;;;;;;22.86;42.86;95943.34;4997702;28;20235;-86
2022/07/15 06:27:03;;;;;;;4.75;2.05;;;;;;;23.05;42.14;95935.97;5012133;28;20206;-87
2022/07/15 06:29:32;;;;;;;2.47;1.70;;;;;;;23.16;40.45;95942.91;5015179;28;20226;-87
2022/07/15 06:32:00;;;;;;;3.08;1.98;;;;;;;23.02;40.84;95942.50;5015353;28;20226;-87
2022/07/15 06:34:27;;;;;;;2.80;2.00;;;;;;;22.94;42.37;95952.63;5014960;28;20273;-87
2022/07/15 06:36:54;;;;;;;2.30;1.85;;;;;;;22.86;40.48;95945.97;5016319;28;20203;-87
2022/07/15 06:39:21;;;;;;;5.93;1.60;;;;;;;22.89;40.83;95949.97;5015283;28;20206;-86
2022/07/15 06:41:53;;;;;;;4.40;1.90;;;;;;;22.70;41.38;95957.31;5014396;28;20210;-87
2022/07/15 06:44:20;;;;;;;4.10;1.73;;;;;;;22.77;41.16;95952.69;5013853;28;20242;-87
2022/07/15 06:47:08;;;;;;;;;;;;;;;;;;;;;
2022/07/15 06:53:48;;;;;;;14.70;13.00;;;;;;;22.99;41.62;95945.59;4971126;28;20242;-87
2022/07/15 06:56:41;;;;;;;7.07;2.40;;;;;;;23.36;40.98;95947.56;4950331;28;20484;-87
2022/07/15 07:09:13;;;;;;;4.65;2.85;;;;;;;23.44;41.01;95957.66;4942213;28;20222;-86
2022/07/15 07:12:25;;;;;;;5.47;2.00;;;;;;;23.55;39.98;95958.56;4976956;28;20615;-87
2022/07/15 07:18:03;;;;;;;4.45;1.90;;;;;;;23.47;39.38;95970.31;4974843;28;20199;-86
2022/07/15 07:24:41;;;;;;;2.28;1.77;;;;;;;23.12;40.03;95964.66;4933747;28;20334;-86
2022/07/15 07:31:25;;;;;;;3.28;1.60;;;;;;;23.09;39.11;95971.97;4992774;28;20199;-86
2022/07/15 07:36:49;;;;;;;5.03;2.08;;;;;;;23.58;39.14;95972.00;4920564;28;20198;-86
2022/07/15 07:39:16;;;;;;;3.72;1.77;;;;;;;23.64;39.15;95971.03;4983093;28;20200;-86
2022/07/15 07:41:44;;;;;;;9.90;8.20;;;;;;;23.68;39.13;95973.91;4983386;28;20204;-86
2022/07/15 07:44:16;;;;;;;6.97;4.30;;;;;;;23.81;38.92;95973.53;4982233;28;20239;-87
2022/07/15 07:46:45;;;;;;;7.40;4.00;;;;;;;23.91;39.37;95970.19;4995597;28;20207;-86
2022/07/15 07:49:12;;;;;;;5.15;2.85;;;;;;;24.21;38.55;95967.00;5000545;28;20219;-87
2022/07/15 07:51:41;;;;;;;2.78;1.90;;;;;;;24.31;37.23;95961.81;5001680;28;20206;-87
2022/07/15 07:54:09;;;;;;;2.55;2.13;;;;;;;24.50;37.76;95968.25;5001676;28;20266;-86
2022/07/15 07:56:36;;;;;;;6.68;2.10;;;;;;;24.59;37.56;95958.84;5001237;28;20238;-86
2022/07/15 07:59:04;;;;;;;3.67;1.92;;;;;;;24.47;37.53;95955.59;5000357;28;20273;-86
2022/07/15 08:01:32;;;;;;;3.15;2.05;;;;;;;24.49;37.99;95950.88;4997073;28;20206;-87
2022/07/15 08:04:03;;;;;;;2.33;1.83;;;;;;;24.59;38.17;95948.31;4999159;28;20238;-86
2022/07/15 08:06:30;;;;;;;6.72;2.20;;;;;;;24.79;37.83;95953.69;4998967;28;20246;-86
2022/07/15 08:08:59;;;;;;;3.90;1.80;;;;;;;24.79;36.90;95947.63;5000178;28;20227;-86
2022/07/15 08:11:27;;;;;;;6.18;2.05;;;;;;;24.76;37.32;95950.75;4997525;28;20207;-86
2022/07/15 08:13:55;;;;;;;4.13;2.08;;;;;;;24.81;37.87;95952.63;4997404;28;20235;-86
2022/07/15 08:16:22;;;;;;;1.73;1.60;;;;;;;24.94;37.26;95950.34;4998082;28;20234;-86
2022/07/15 08:18:53;;;;;;;2.90;1.85;;;;;;;24.98;37.47;95945.34;4998603;28;20233;-86
2022/07/15 08:21:29;;;;;;;2.85;1.88;;;;;;;25.17;37.50;95946.47;4999225;28;20195;-86
2022/07/15 08:23:55;;;;;;;7.47;6.07;;;;;;;25.25;37.09;95945.16;4997844;28;20230;-86
2022/07/15 08:26:24;;;;;;;5.82;2.50;;;;;;;25.19;36.17;95939.09;4990325;28;20251;-87
2022/07/15 08:28:55;;;;;;;4.53;3.67;;;;;;;25.35;36.98;95947.81;4980150;28;20224;-86
2022/07/15 08:31:23;;;;;;;9.82;5.55;;;;;;;25.34;36.73;95944.41;4979817;28;20287;-86
2022/07/15 08:33:49;;;;;;;2.88;2.22;;;;;;;25.23;36.54;95950.69;4979058;28;20602;-86
2022/07/15 08:36:16;;;;;;;3.72;2.63;;;;;;;25.32;37.04;95943.88;4979419;28;20211;-86
2022/07/15 08:38:44;;;;;;;7.00;2.75;;;;;;;25.34;36.70;95944.41;4980079;28;20204;-86
2022/07/15 08:41:11;;;;;;;8.90;3.15;;;;;;;25.42;36.81;95940.44;4979384;28;20211;-86
2022/07/15 08:43:37;;;;;;;4.75;2.40;;;;;;;25.63;36.44;95938.66;4971095;28;20243;-86
2022/07/15 08:46:09;;;;;;;5.38;2.28;;;;;;;25.71;37.40;95946.84;4979242;28;20211;-86
2022/07/15 08:48:38;;;;;;;3.92;2.08;;;;;;;26.04;36.76;95942.09;4984404;28;20594;-86
2022/07/15 08:51:07;;;;;;;7.68;2.47;;;;;;;26.32;36.37;95943.41;4998189;28;20242;-85
2022/07/15 08:53:34;;;;;;;5.40;2.53;;;;;;;26.27;35.24;95938.91;4995523;28;20722;-86
2022/07/15 08:56:02;;;;;;;3.38;2.20;;;;;;;25.92;35.53;95936.31;4998634;28;20196;-86
2022/07/15 08:58:29;;;;;;;4.88;2.33;;;;;;;26.05;36.02;95941.03;4998495;28;20207;-86
2022/07/15 09:01:01;;;;;;;4.35;2.50;;;;;;;26.25;35.82;95934.94;4998065;28;20195;-86
2022/07/15 09:03:30;;;;;;;4.10;2.45;;;;;;;26.44;36.20;95930.72;4996839;28;20289;-86
2022/07/15 09:05:57;;;;;;;8.45;2.50;;;;;;;26.70;35.34;95931.44;4998119;28;20341;-86
2022/07/15 09:08:26;;;;;;;6.53;2.28;;;;;;;26.84;35.04;95925.28;4997894;28;20203;-86
2022/07/15 09:10:54;;;;;;;5.97;2.25;;;;;;;26.82;34.97;95931.91;4997201;28;20254;-86
2022/07/15 09:13:31;;;;;;;4.35;2.42;;;;;;;26.64;34.91;95932.50;4996604;28;20714;-86
2022/07/15 09:15:59;;;;;;;5.22;2.65;;;;;;;26.26;35.23;95931.25;4999470;28;20274;-86
2022/07/15 09:18:28;;;;;;;4.18;2.50;;;;;;;26.34;34.62;95928.91;5000416;28;20200;-85
2022/07/15 09:20:56;;;;;;;4.68;2.30;;;;;;;26.37;34.80;95928.34;5000767;28;20267;-86
2022/07/15 09:23:30;;;;;;;2.80;1.95;;;;;;;26.68;35.82;95934.34;4999423;28;20239;-85
2022/07/15 09:25:58;;;;;;;4.15;2.70;;;;;;;26.68;34.64;95931.72;5000487;28;20208;-86
2022/07/15 09:28:44;;;;;;;6.45;2.50;;;;;;;26.63;34.86;95923.78;5000292;28;20203;-86
2022/07/15 09:34:01;;;;;;;5.15;2.88;;;;;;;27.08;33.51;95929.97;4999995;28;20242;-86
2022/07/15 09:36:33;;;;;;;4.35;2.38;;;;;;;26.92;34.08;95931.88;5000201;28;20238;-86
2022/07/15 09:41:53;;;;;;;4.47;2.60;;;;;;;27.45;34.08;95924.22;4997775;28;20363;-86
2022/07/15 09:44:33;;;;;;;3.20;2.60;;;;;;;27.71;33.17;95928.28;4998741;28;20326;-86
2022/07/15 09:47:20;;;;;;;3.47;2.63;;;;;;;27.88;33.95;95935.84;4999979;28;20231;-86
2022/07/15 09:49:52;;;;;;;5.40;3.88;;;;;;;27.90;33.00;95939.00;4997262;28;20223;-85
2022/07/15 09:52:23;;;;;;;9.10;7.63;;;;;;;27.77;32.30;95934.31;4986499;28;20232;-86
2022/07/15 09:54:50;;;;;;;5.50;3.08;;;;;;;27.65;32.15;95931.25;4996518;28;20246;-86
2022/07/15 09:57:23;;;;;;;5.68;2.63;;;;;;;27.62;32.84;95929.16;4987601;28;20234;-86
2022/07/15 09:59:57;;;;;;;3.33;2.70;;;;;;;27.75;32.21;95921.38;4985154;28;20196;-86
2022/07/15 10:02:35;;;;;;;5.63;2.80;;;;;;;27.90;32.46;95927.63;4996178;28;20293;-86
2022/07/15 10:05:04;;;;;;;4.07;2.58;;;;;;;28.05;32.06;95917.69;4993363;28;20228;-86
2022/07/15 10:07:31;;;;;;;5.88;2.97;;;;;;;28.18;32.17;95918.88;4997131;28;20687;-86
2022/07/15 10:10:02;;;;;;;3.33;2.40;;;;;;;28.24;32.33;95915.16;4996523;28;20226;-86
2022/07/15 10:12:39;;;;;;;3.85;2.60;;;;;;;28.32;31.41;95909.22;4996409;28;20231;-85
2022/07/15 10:15:16;;;;;;;7.70;2.63;;;;;;;28.31;31.30;95923.53;4997466;28;20242;-85
2022/07/15 10:17:51;;;;;;;5.50;2.33;;;;;;;28.50;31.01;95916.44;4995240;28;20228;-86
2022/07/15 10:20:48;;;;;;;4.85;2.60;;;;;;;28.52;30.38;95906.38;4996715;28;20214;-86
2022/07/15 10:23:31;;;;;;;3.95;2.40;;;;;;;28.59;30.60;95913.19;4980574;28;20769;-85
2022/07/15 10:26:07;;;;;;;5.55;2.83;;;;;;;28.51;31.51;95907.44;4991532;28;20204;-86
2022/07/15 10:28:46;;;;;;;4.40;2.50;;;;;;;28.44;30.58;95908.88;4996516;28;20198;-86
2022/07/15 10:31:20;;;;;;;3.00;2.40;;;;;;;28.44;30.26;95904.34;4995877;28;20698;-86
2022/07/15 10:34:19;;;;;;;3.92;2.65;;;;;;;28.64;30.48;95911.28;4995771;28;20231;-85
2022/07/15 10:36:58;;;;;;;5.07;2.78;;;;;;;28.66;30.03;95901.19;4994797;28;20204;-86
2022/07/15 10:39:27;;;;;;;2.85;2.55;;;;;;;28.35;30.04;95907.88;4995217;28;20258;-86
2022/07/15 10:41:56;;;;;;;5.78;2.53;;;;;;;28.32;29.83;95903.94;4995189;28;20235;-86
2022/07/15 10:44:23;;;;;;;3.63;2.40;;;;;;;28.50;30.06;95903.22;4994972;28;20246;-86
2022/07/15 10:47:17;;;;;;;4.65;2.67;;;;;;;28.77;29.72;95893.91;4993148;28;20238;-86
2022/07/15 10:49:46;;;;;;;6.00;5.30;;;;;;;28.90;30.42;95900.38;4991767;28;20215;-86
2022/07/15 10:52:16;;;;;;;6.55;5.45;;;;;;;28.92;30.06;95899.03;4988557;28;20208;-86
2022/07/15 10:54:47;;;;;;;3.85;2.72;;;;;;;28.94;30.54;95898.75;4993138;28;20742;-86
2022/07/15 10:57:17;;;;;;;3.53;2.25;;;;;;;29.06;30.10;95899.91;4994044;28;20203;-86
2022/07/15 10:59:52;;;;;;;5.22;2.65;;;;;;;29.27;30.06;95894.31;4995085;28;20191;-86
2022/07/15 11:02:23;;;;;;;3.38;2.50;;;;;;;29.48;29.37;95895.63;4996776;28;20224;-85
2022/07/15 11:04:51;;;;;;;4.28;2.35;;;;;;;29.25;30.20;95896.50;5004706;28;20223;-85
2022/07/15 11:07:35;;;;;;;3.55;2.47;;;;;;;29.20;29.95;95892.81;4997522;28;20711;-85
2022/07/15 11:10:16;;;;;;;4.47;2.67;;;;;;;29.22;30.36;95892.53;4997546;28;20307;-85
2022/07/15 11:13:04;;;;;;;4.75;2.33;;;;;;;29.57;29.35;95882.50;4996649;28;20588;-85
2022/07/15 11:15:32;;;;;;;7.90;2.83;;;;;;;29.58;28.94;95890.19;4996649;28;20215;-86
2022/07/15 11:18:00;;;;;;;3.00;2.40;;;;;;;29.59;29.03;95880.34;4996380;28;20861;-86
2022/07/15 11:20:33;;;;;;;4.40;2.30;;;;;;;29.62;29.63;95888.53;4995610;28;20200;-85
2022/07/15 11:23:01;;;;;;;4.47;2.42;;;;;;;29.77;29.30;95876.88;4995543;28;20492;-86
2022/07/15 11:25:30;;;;;;;6.47;2.65;;;;;;;29.87;29.11;95868.72;4995508;28;20230;-86
2022/07/15 11:28:01;;;;;;;3.63;2.58;;;;;;;29.68;28.74;95873.28;4997023;28;20694;-86
2022/07/15 11:30:28;;;;;;;4.63;2.50;;;;;;;29.72;28.43;95876.94;4994225;28;20224;-85
2022/07/15 11:32:56;;;;;;;3.85;2.22;;;;;;;29.52;28.70;95865.56;4975514;28;20239;-85
2022/07/15 11:35:25;;;;;;;5.25;2.40;;;;;;;29.64;28.66;95866.97;4993723;28;20234;-85
2022/07/15 11:38:01;;;;;;;3.78;2.50;;;;;;;29.43;29.35;95856.72;4995032;28;20204;-85
2022/07/15 11:45:59;;;;;;;4.57;2.60;;;;;;;29.83;28.42;95847.25;4995619;28;20259;-86
2022/07/15 11:48:28;;;;;;;3.38;2.50;;;;;;;30.11;28.69;95857.97;4995099;28;20210;-86
2022/07/15 11:50:57;;;;;;;11.50;10.43;;;;;;;30.24;28.73;95846.56;4996437;28;20219;-85
2022/07/15 11:53:25;;;;;;;4.13;2.95;;;;;;;30.33;28.37;95852.78;4991568;28;20227;-85
2022/07/15 11:55:56;;;;;;;3.63;3.08;;;;;;;30.40;28.19;95845.22;4997848;28;20206;-86
2022/07/15 11:58:27;;;;;;;3.83;3.17;;;;;;;30.29;28.15;95848.34;4998957;28;20196;-85
2022/07/15 12:00:54;;;;;;;3.35;2.38;;;;;;;30.12;28.84;95848.94;4997035;28;20208;-85
2022/07/15 12:03:20;;;;;;;3.17;2.63;;;;;;;30.17;29.01;95841.66;4998569;28;20229;-86
2022/07/15 12:06:05;;;;;;;5.28;2.95;;;;;;;30.20;27.62;95846.38;5000238;28;20573;-86
2022/07/15 12:08:37;;;;;;;5.90;2.45;;;;;;;30.15;28.59;95833.19;4998578;28;20207;-86
2022/07/15 12:11:09;;;;;;;4.78;2.70;;;;;;;30.26;28.14;95839.09;4998117;28;20222;-85
2022/07/15 12:13:44;;;;;;;3.42;2.33;;;;;;;30.23;28.29;95835.16;4998751;28;20231;-85
2022/07/15 12:16:11;;;;;;;3.03;2.35;;;;;;;30.21;28.08;95833.88;4995095;28;20199;-86
2022/07/15 12:18:38;;;;;;;3.25;2.40;;;;;;;30.35;28.15;95837.31;4999425;28;20195;-85
2022/07/15 12:21:06;;;;;;;2.88;2.35;;;;;;;30.35;27.18;95824.03;4998077;28;20223;-86
2022/07/15 12:23:33;;;;;;;3.05;2.17;;;;;;;30.36;27.34;95822.97;4991929;28;20242;-85
2022/07/15 12:26:04;;;;;;;2.67;2.42;;;;;;;30.17;27.09;95823.06;5000404;28;20707;-86
2022/07/15 12:28:35;;;;;;;4.57;2.67;;;;;;;29.94;27.77;95823.19;5003411;28;20207;-86
2022/07/15 12:31:05;;;;;;;2.95;2.58;;;;;;;29.60;28.16;95820.88;4999879;28;20219;-86
2022/07/15 12:33:38;;;;;;;3.97;2.28;;;;;;;29.78;28.75;95812.06;4999357;28;20613;-86
2022/07/15 12:36:23;;;;;;;4.38;2.22;;;;;;;30.03;28.04;95813.50;5001453;28;20191;-86
2022/07/15 12:39:13;;;;;;;4.30;2.42;;;;;;;29.88;28.09;95817.97;4999789;28;20203;-85
2022/07/15 12:42:00;;;;;;;2.78;2.20;;;;;;;29.54;28.40;95815.66;4998174;28;20203;-86
2022/07/15 12:44:35;;;;;;;2.67;2.20;;;;;;;29.68;29.00;95813.03;4967517;28;20242;-86
2022/07/15 12:47:30;;;;;;;;;;;;;;;;;;;;;
2022/07/15 12:50:03;;;;;;;3.35;2.20;;;;;;;29.54;29.14;95815.66;4999751;28;20223;-86
2022/07/15 12:52:36;;;;;;;2.97;2.40;;;;;;;29.78;29.02;95815.50;4998768;28;20235;-86
2022/07/15 12:55:18;;;;;;;3.28;2.40;;;;;;;30.11;27.54;95808.28;5001145;28;20285;-86
2022/07/15 12:57:51;;;;;;;2.88;2.55;;;;;;;29.88;28.36;95817.19;4999309;28;20207;-85
2022/07/15 13:00:22;;;;;;;2.55;2.30;;;;;;;29.97;27.87;95812.00;4998342;28;20210;-86
2022/07/15 13:02:57;;;;;;;10.57;9.48;;;;;;;30.06;28.09;95804.94;4997014;28;20231;-86
2022/07/15 13:05:33;;;;;;;15.38;13.82;;;;;;;30.24;27.88;95814.69;5000262;28;20269;-86
2022/07/15 13:08:02;;;;;;;4.43;3.63;;;;;;;30.38;26.71;95796.88;5000780;28;20289;-87
2022/07/15 13:10:36;;;;;;;2.92;2.63;;;;;;;30.52;27.13;95804.84;4998175;28;20215;-85
2022/07/15 13:13:04;;;;;;;3.67;2.75;;;;;;;30.34;27.98;95806.53;5001526;28;20718;-86
2022/07/15 13:15:32;;;;;;;2.70;2.40;;;;;;;30.22;28.32;95800.91;5001477;28;20235;-86
2022/07/15 13:17:59;;;;;;;4.90;2.30;;;;;;;30.36;27.18;95791.06;5002367;28;20203;-87
2022/07/15 13:20:26;;;;;;;4.38;2.50;;;;;;;30.36;28.03;95796.38;5001883;28;20200;-86
2022/07/15 13:22:52;;;;;;;3.45;2.25;;;;;;;30.42;27.06;95794.41;5001700;28;20235;-86
2022/07/15 13:25:21;;;;;;;2.78;2.38;;;;;;;30.41;27.42;95798.13;5002361;28;20579;-86
2022/07/15 13:27:48;;;;;;;4.13;2.15;;;;;;;30.56;27.42;95793.34;5002011;28;20207;-86
2022/07/15 13:30:15;;;;;;;3.17;2.58;;;;;;;30.57;27.14;95788.81;5000008;28;20227;-86
2022/07/15 13:32:44;;;;;;;3.20;2.47;;;;;;;30.69;27.06;95785.63;5000178;28;20231;-86
2022/07/15 13:35:12;;;;;;;2.83;2.50;;;;;;;30.80;26.81;95792.28;4999479;28;20259;-86
2022/07/15 13:37:39;;;;;;;3.08;2.50;;;;;;;30.86;27.04;95797.19;4999903;28;20258;-86
2022/07/15 13:40:09;;;;;;;4.20;2.60;;;;;;;30.89;27.15;95796.59;4999941;28;20206;-86
2022/07/15 13:42:38;;;;;;;4.30;2.25;;;;;;;30.98;26.28;95793.25;4999723;28;20231;-86
2022/07/15 13:45:08;;;;;;;5.28;2.80;;;;;;;30.82;25.94;95790.91;5000196;28;20318;-86